メインページ
METAR-TAF:

METAR-TAF

空港 :

キングストン, ジャマイカ

ノーマン・マンレー国際空港

緯度: 17-56N, 経度: 076-47W, 海抜: 3m

現時点の気象観測

当レポートは1時間4分前の10:00(UTC)に作成
北東の風 5kt
気温 28°C
湿度 74%
気圧 1012 hPa
視程10km以上
高度2200ftの雲はほとんどない

METAR: MKJP 201000Z 04005KT 9999 FEW022 28/23 Q1012

時間: 06:04 (11:04 UTC)

予報

当レポートは5時間49分前の05:15(UTC)に作成
予報は20日の 06時(UTC)から 21日の 06時(UTC)まで有効
の風 7kt
視程10km以上
高度2000ftの雲は散在している
高度2200ftの雲はほとんどない, 積乱雲.
20日の 14時(UTC)から 20日の 16時(UTC)まで徐々に
南/南東の風 15kt
確率 40% :
20日の 19時(UTC)から 20日の 22時(UTC)まで一時的に
高度1800ftの雲は散在している
高度2000ftの雲は散在している, 積乱雲.
激しい雷雨
21日の 00時(UTC)から 21日の 02時(UTC)まで徐々に
の風 7kt
高度2000ftの雲はほとんどない
高度2200ftの雲はほとんどない, 積乱雲.

TAF: MKJP 200515Z 2006/2106 35007KT 9999 SCT020 FEW022CB BECMG 2014/2016 15015KT PROB40 TEMPO 2019/2022 TS SCT018 SCT020CB BECMG 2100/2102 35007KT FEW020 FEW022CB

4,000以上の空港の気象観測と天気予報(METAR報とTAF報)

利用可能な観測所は地図上に黄色い丸と赤い丸で示す。

丸の上にカーソルを重ねると観測所名を参照できる。

次にクリックすると気象観測と天気予報を参照できる。

マップの切り替え:黒色「×」印の緑ボタンをクリックして拡大、「-」印の緑ボタンをクリックして縮小、緑色の三角印をクリックして隣りの地図に切り替え


METAR-TAF: